createdAt,value
2017-01-26T00:00:04.207Z,99.99
2017-01-26T00:01:04.978Z,99.99
2017-01-26T00:02:05.562Z,99.99
2017-01-26T00:03:04.844Z,99.99
2017-01-26T00:04:04.528Z,99.99
2017-01-26T00:05:04.164Z,99.99
2017-01-26T00:06:05.272Z,99.99
2017-01-26T00:07:05.117Z,99.99
2017-01-26T00:08:04.920Z,99.99
2017-01-26T00:09:04.960Z,99.99
2017-01-26T00:10:05.147Z,99.99
2017-01-26T00:11:05.208Z,99.99
2017-01-26T00:12:06.414Z,99.99
2017-01-26T00:13:04.494Z,99.99
2017-01-26T00:14:04.377Z,99.99
2017-01-26T00:15:04.906Z,99.99
2017-01-26T00:16:05.233Z,99.99
2017-01-26T00:17:04.996Z,99.99
2017-01-26T00:18:05.473Z,99.99
2017-01-26T00:19:05.903Z,99.99
2017-01-26T00:20:05.363Z,99.99
2017-01-26T00:21:05.745Z,99.99
2017-01-26T00:22:04.316Z,99.99
2017-01-26T00:23:04.879Z,99.99
2017-01-26T00:24:04.849Z,99.99
2017-01-26T00:25:04.956Z,99.99
2017-01-26T00:26:05.373Z,99.99
2017-01-26T00:27:05.222Z,99.99
2017-01-26T00:28:05.548Z,99.99
2017-01-26T00:29:04.475Z,99.99
2017-01-26T00:30:04.058Z,99.99
2017-01-26T00:31:04.758Z,99.99
2017-01-26T00:32:04.604Z,99.99
2017-01-26T00:33:05.403Z,99.99
2017-01-26T00:34:05.159Z,99.99
2017-01-26T00:35:04.598Z,99.99
2017-01-26T00:36:05.186Z,99.99
2017-01-26T00:37:05.690Z,99.99
2017-01-26T00:38:04.872Z,99.99
2017-01-26T00:39:05.247Z,99.99
2017-01-26T00:40:04.913Z,99.99
2017-01-26T00:41:05.035Z,99.99
2017-01-26T00:42:04.566Z,99.99
2017-01-26T00:43:05.369Z,99.99
2017-01-26T00:44:05.346Z,99.99
2017-01-26T00:45:05.556Z,99.99
2017-01-26T00:46:06.204Z,99.99
2017-01-26T00:47:05.133Z,99.99
2017-01-26T00:48:05.484Z,99.99
2017-01-26T00:49:05.326Z,99.99
2017-01-26T00:50:05.134Z,99.99
2017-01-26T00:51:05.214Z,99.99
2017-01-26T00:52:05.530Z,99.99
2017-01-26T00:53:05.376Z,99.99
2017-01-26T00:54:05.140Z,99.99
2017-01-26T00:55:05.264Z,99.99
2017-01-26T00:56:05.265Z,99.99
2017-01-26T00:57:05.259Z,99.99
2017-01-26T00:58:05.802Z,99.99
2017-01-26T00:59:05.734Z,99.99
2017-01-26T01:00:05.710Z,99.99
2017-01-26T01:01:05.061Z,99.99
2017-01-26T01:02:05.548Z,99.99
2017-01-26T01:03:05.906Z,99.99
2017-01-26T01:04:05.086Z,99.99
2017-01-26T01:05:05.358Z,99.99
2017-01-26T01:06:05.053Z,99.99
2017-01-26T01:07:05.375Z,99.99
2017-01-26T01:08:05.954Z,99.99
2017-01-26T01:09:05.680Z,99.99
2017-01-26T01:10:05.603Z,99.99
2017-01-26T01:11:05.366Z,99.99
2017-01-26T01:12:05.195Z,99.99
2017-01-26T01:13:06.302Z,99.99
2017-01-26T01:14:05.652Z,99.99
2017-01-26T01:15:05.467Z,99.99
2017-01-26T01:16:04.906Z,99.99
2017-01-26T01:17:05.691Z,99.99
2017-01-26T01:18:05.157Z,99.99
2017-01-26T01:19:05.065Z,99.99
2017-01-26T01:20:06.021Z,99.99
2017-01-26T01:21:05.320Z,99.99
2017-01-26T01:22:05.994Z,99.99
2017-01-26T01:23:05.680Z,99.99
2017-01-26T01:24:05.902Z,99.99
2017-01-26T01:25:05.823Z,99.99
2017-01-26T01:26:06.251Z,99.99
2017-01-26T01:27:05.245Z,99.99
2017-01-26T01:28:06.139Z,99.99
2017-01-26T01:29:05.416Z,99.99
2017-01-26T01:30:05.826Z,99.99
2017-01-26T01:31:05.491Z,99.99
2017-01-26T01:32:05.466Z,99.99
2017-01-26T01:33:06.663Z,99.99
2017-01-26T01:34:05.409Z,99.99
2017-01-26T01:35:05.676Z,99.99
2017-01-26T01:36:05.558Z,99.99
2017-01-26T01:37:06.183Z,99.99
2017-01-26T01:38:05.584Z,99.99
2017-01-26T01:39:05.636Z,99.99
2017-01-26T01:40:05.934Z,99.99
2017-01-26T01:41:05.711Z,99.99
2017-01-26T01:42:05.580Z,99.99
2017-01-26T01:43:05.302Z,99.99
2017-01-26T01:44:05.539Z,99.99
2017-01-26T01:45:05.710Z,99.99
2017-01-26T01:46:06.040Z,99.99
2017-01-26T01:47:05.465Z,99.99
2017-01-26T01:48:06.660Z,99.99
2017-01-26T01:49:05.428Z,99.99
2017-01-26T01:50:06.360Z,99.99
2017-01-26T01:51:05.893Z,99.99
2017-01-26T01:52:06.429Z,99.99
2017-01-26T01:53:05.850Z,99.99
2017-01-26T01:54:05.599Z,99.99
2017-01-26T01:55:05.960Z,99.99
2017-01-26T01:56:05.857Z,99.99
2017-01-26T01:57:06.353Z,99.99
2017-01-26T01:58:05.733Z,99.99
2017-01-26T01:59:06.610Z,99.99
2017-01-26T02:00:05.984Z,99.99
2017-01-26T02:01:06.839Z,99.99
2017-01-26T02:02:05.956Z,99.99
2017-01-26T02:03:05.763Z,99.99
2017-01-26T02:04:05.767Z,99.99
2017-01-26T02:05:06.592Z,99.99
2017-01-26T02:06:05.843Z,99.99
2017-01-26T02:07:06.353Z,99.99
2017-01-26T02:08:06.190Z,99.99
2017-01-26T02:09:05.783Z,99.99
2017-01-26T02:10:07.309Z,99.99
2017-01-26T02:11:05.861Z,99.99
2017-01-26T02:12:07.234Z,99.99
2017-01-26T02:13:05.753Z,99.99
2017-01-26T02:14:05.776Z,99.99
2017-01-26T02:15:05.903Z,99.99
2017-01-26T02:16:05.930Z,99.99
2017-01-26T02:17:06.485Z,99.99
2017-01-26T02:18:06.291Z,99.99
2017-01-26T02:19:06.217Z,99.99
2017-01-26T02:20:06.499Z,99.99
2017-01-26T02:21:06.222Z,99.99
2017-01-26T02:22:05.836Z,99.99
2017-01-26T02:23:06.274Z,99.99
2017-01-26T02:24:06.304Z,99.99
2017-01-26T02:25:06.251Z,99.99
2017-01-26T02:26:05.944Z,99.99
2017-01-26T02:27:06.544Z,99.99
2017-01-26T02:28:06.685Z,99.99
2017-01-26T02:29:06.817Z,99.99
2017-01-26T02:30:06.754Z,99.99
2017-01-26T02:31:05.936Z,99.99
2017-01-26T02:32:06.019Z,99.99
2017-01-26T02:33:05.790Z,99.99
2017-01-26T02:34:06.782Z,99.99
2017-01-26T02:35:07.038Z,99.99
2017-01-26T02:36:06.382Z,99.99
2017-01-26T02:37:06.209Z,99.99
2017-01-26T02:38:06.524Z,99.99
2017-01-26T02:39:06.824Z,99.99
2017-01-26T02:40:06.325Z,99.99
2017-01-26T02:41:06.085Z,99.99
2017-01-26T02:42:06.243Z,99.99
2017-01-26T02:43:06.449Z,99.99
2017-01-26T02:44:05.887Z,99.99
2017-01-26T02:45:06.475Z,99.99
2017-01-26T02:46:06.979Z,99.99
2017-01-26T02:47:07.408Z,99.99
2017-01-26T02:48:06.619Z,99.99
2017-01-26T02:49:06.505Z,99.99
2017-01-26T02:50:06.817Z,99.99
2017-01-26T02:51:06.228Z,99.99
2017-01-26T02:52:06.406Z,99.99
2017-01-26T02:53:06.839Z,99.99
2017-01-26T02:54:06.372Z,99.99
2017-01-26T02:55:06.423Z,99.99
2017-01-26T02:56:06.842Z,99.99
2017-01-26T02:57:07.128Z,99.99
2017-01-26T02:58:06.569Z,99.99
2017-01-26T02:59:07.826Z,99.99
2017-01-26T03:00:06.272Z,99.99
2017-01-26T03:01:06.416Z,99.99
2017-01-26T03:02:07.160Z,99.99
2017-01-26T03:03:06.657Z,99.99
2017-01-26T03:04:06.065Z,99.99
2017-01-26T03:05:06.769Z,99.99
2017-01-26T03:06:06.677Z,99.99
2017-01-26T03:07:07.406Z,99.99
2017-01-26T03:08:07.796Z,99.99
2017-01-26T03:09:06.828Z,99.99
2017-01-26T03:10:07.018Z,99.99
2017-01-26T03:11:07.257Z,99.99
2017-01-26T03:12:07.132Z,99.99
2017-01-26T03:13:06.656Z,99.99
2017-01-26T03:14:07.266Z,99.99
2017-01-26T03:15:07.170Z,99.99
2017-01-26T03:16:06.542Z,99.99
2017-01-26T03:17:07.073Z,99.99
2017-01-26T03:18:06.914Z,99.99
2017-01-26T03:19:06.632Z,99.71
2017-01-26T03:20:06.921Z,99.99
2017-01-26T03:21:06.649Z,99.99
2017-01-26T03:22:07.234Z,99.99
2017-01-26T03:23:06.427Z,99.89
2017-01-26T03:24:06.581Z,99.23
2017-01-26T03:25:06.387Z,99.8
2017-01-26T03:26:06.779Z,99.99
2017-01-26T03:27:07.707Z,99.99
2017-01-26T03:28:06.568Z,99.99
2017-01-26T03:29:07.953Z,99.99
2017-01-26T03:30:06.986Z,99.61
2017-01-26T03:31:07.924Z,99.33
2017-01-26T03:32:07.212Z,99.8
2017-01-26T03:33:06.373Z,99.8
2017-01-26T03:34:07.452Z,99.61
2017-01-26T03:35:06.968Z,99.52
2017-01-26T03:36:07.154Z,99.33
2017-01-26T03:37:07.258Z,99.14
2017-01-26T03:38:07.288Z,99.42
2017-01-26T03:39:07.752Z,99.71
2017-01-26T03:40:06.590Z,99.33
2017-01-26T03:41:06.606Z,99.52
2017-01-26T03:42:06.426Z,99.52
2017-01-26T03:43:06.758Z,99.23
2017-01-26T03:44:07.380Z,99.61
2017-01-26T03:45:07.395Z,99.71
2017-01-26T03:46:06.875Z,99.23
2017-01-26T03:47:07.003Z,99.33
2017-01-26T03:48:06.878Z,99.99
2017-01-26T03:49:07.351Z,99.33
2017-01-26T03:50:07.299Z,99.23
2017-01-26T03:51:07.115Z,99.8
2017-01-26T03:52:07.537Z,99.52
2017-01-26T03:53:07.918Z,98.95
2017-01-26T03:54:07.784Z,99.33
2017-01-26T03:55:07.637Z,99.42
2017-01-26T03:56:08.102Z,99.71
2017-01-26T03:57:07.138Z,99.61
2017-01-26T03:58:07.060Z,99.33
2017-01-26T03:59:07.189Z,99.61
2017-01-26T04:00:07.571Z,99.52
2017-01-26T04:01:06.922Z,99.71
2017-01-26T04:02:07.221Z,99.52
2017-01-26T04:03:07.282Z,99.23
2017-01-26T04:04:07.455Z,99.04
2017-01-26T04:05:07.622Z,99.71
2017-01-26T04:06:07.379Z,99.04
2017-01-26T04:07:07.538Z,99.52
2017-01-26T04:08:08.352Z,99.52
2017-01-26T04:09:07.975Z,99.42
2017-01-26T04:10:08.282Z,99.61
2017-01-26T04:11:07.334Z,99.8
2017-01-26T04:12:07.115Z,99.42
2017-01-26T04:13:07.121Z,99.57
2017-01-26T04:14:07.231Z,99.42
2017-01-26T04:15:07.388Z,99.8
2017-01-26T04:16:07.796Z,99.85
2017-01-26T04:17:07.841Z,99.61
2017-01-26T04:18:07.275Z,99.42
2017-01-26T04:19:07.233Z,99.52
2017-01-26T04:20:07.250Z,99.42
2017-01-26T04:21:08.229Z,99.42
2017-01-26T04:22:08.636Z,99.28
2017-01-26T04:23:08.040Z,99.61
2017-01-26T04:24:07.375Z,99.33
2017-01-26T04:25:07.893Z,99.33
2017-01-26T04:26:08.453Z,99.52
2017-01-26T04:27:07.185Z,99.61
2017-01-26T04:28:07.553Z,99.42
2017-01-26T04:29:08.634Z,99.38
2017-01-26T04:30:07.884Z,98.43
2017-01-26T04:31:08.156Z,98.66
2017-01-26T04:32:07.315Z,98.66
2017-01-26T04:33:07.615Z,98.47
2017-01-26T04:34:08.572Z,98.62
2017-01-26T04:35:08.057Z,98.52
2017-01-26T04:36:08.444Z,98.43
2017-01-26T04:37:07.888Z,98.38
2017-01-26T04:38:07.397Z,98.81
2017-01-26T04:39:07.721Z,98.38
2017-01-26T04:40:07.754Z,98.43
2017-01-26T04:41:08.243Z,98.52
2017-01-26T04:42:07.330Z,98.19
2017-01-26T04:43:08.326Z,98.14
2017-01-26T04:44:07.569Z,98.1
2017-01-26T04:45:08.065Z,98.05
2017-01-26T04:46:07.636Z,97.53
2017-01-26T04:47:08.466Z,97.67
2017-01-26T04:48:07.918Z,97.25
2017-01-26T04:49:08.765Z,96.45
2017-01-26T04:50:08.038Z,96.54
2017-01-26T04:51:07.571Z,96.83
2017-01-26T04:52:07.628Z,96.73
2017-01-26T04:53:07.719Z,96.54
2017-01-26T04:54:08.067Z,96.54
2017-01-26T04:55:07.667Z,96.64
2017-01-26T04:56:08.355Z,96.78
2017-01-26T04:57:08.177Z,96.35
2017-01-26T04:58:07.459Z,96.07
2017-01-26T04:59:08.912Z,96.07
2017-01-26T05:00:08.724Z,96.26
2017-01-26T05:01:08.220Z,95.59
2017-01-26T05:02:09.106Z,95.97
2017-01-26T05:03:07.984Z,95.97
2017-01-26T05:04:08.384Z,95.97
2017-01-26T05:05:09.011Z,96.73
2017-01-26T05:06:07.451Z,97.2
2017-01-26T05:07:07.924Z,97.39
2017-01-26T05:08:08.266Z,97.15
2017-01-26T05:09:08.851Z,96.73
2017-01-26T05:10:09.201Z,97.2
2017-01-26T05:11:07.993Z,96.92
2017-01-26T05:12:07.859Z,97.3
2017-01-26T05:13:07.648Z,97.01
2017-01-26T05:14:08.273Z,97.39
2017-01-26T05:15:07.802Z,97.25
2017-01-26T05:16:07.923Z,97.39
2017-01-26T05:17:09.268Z,97.49
2017-01-26T05:18:08.593Z,97.34
2017-01-26T05:19:08.597Z,97.06
2017-01-26T05:20:08.504Z,96.26
2017-01-26T05:21:08.768Z,96.26
2017-01-26T05:22:08.444Z,96.49
2017-01-26T05:23:07.754Z,95.78
2017-01-26T05:24:09.123Z,95.69
2017-01-26T05:25:08.464Z,95.97
2017-01-26T05:26:09.248Z,96.16
2017-01-26T05:27:07.963Z,95.73
2017-01-26T05:28:08.122Z,96.21
2017-01-26T05:29:08.374Z,95.31
2017-01-26T05:30:08.526Z,96.16
2017-01-26T05:31:08.166Z,95.78
2017-01-26T05:32:08.781Z,96.16
2017-01-26T05:33:08.819Z,96.16
2017-01-26T05:34:07.892Z,95.5
2017-01-26T05:35:08.218Z,96.26
2017-01-26T05:36:09.542Z,95.97
2017-01-26T05:37:08.765Z,96.45
2017-01-26T05:38:08.664Z,96.26
2017-01-26T05:39:08.307Z,95.59
2017-01-26T05:40:08.267Z,95.97
2017-01-26T05:41:09.402Z,95.69
2017-01-26T05:42:09.451Z,95.12
2017-01-26T05:43:08.530Z,95.97
2017-01-26T05:44:09.524Z,96.35
2017-01-26T05:45:08.051Z,95.5
2017-01-26T05:46:08.634Z,95.78
2017-01-26T05:47:09.291Z,95.31
2017-01-26T05:48:08.275Z,95.26
2017-01-26T05:49:07.837Z,96.07
2017-01-26T05:50:08.062Z,95.5
2017-01-26T05:51:08.985Z,95.69
2017-01-26T05:52:09.243Z,96.07
2017-01-26T05:53:08.411Z,96.35
2017-01-26T05:54:08.788Z,95.88
2017-01-26T05:55:09.051Z,96.54
2017-01-26T05:56:08.377Z,96.26
2017-01-26T05:57:08.650Z,96.3
2017-01-26T05:58:08.748Z,96.21
2017-01-26T05:59:09.355Z,95.59
2017-01-26T06:00:08.516Z,95.5
2017-01-26T06:01:09.803Z,95.36
2017-01-26T06:02:09.320Z,96.02
2017-01-26T06:03:08.655Z,95.83
2017-01-26T06:04:09.157Z,96.49
2017-01-26T06:05:08.461Z,96.16
2017-01-26T06:06:08.643Z,95.26
2017-01-26T06:07:09.060Z,95.59
2017-01-26T06:08:08.719Z,96.21
2017-01-26T06:09:08.859Z,96.11
2017-01-26T06:10:08.911Z,96.49
2017-01-26T06:11:08.783Z,96.21
2017-01-26T06:12:08.631Z,96.02
2017-01-26T06:13:09.684Z,96.49
2017-01-26T06:14:09.244Z,96.49
2017-01-26T06:15:08.814Z,96.4
2017-01-26T06:16:08.639Z,96.21
2017-01-26T06:17:08.921Z,96.02
2017-01-26T06:18:08.573Z,96.11
2017-01-26T06:19:11.720Z,96.21
2017-01-26T06:20:08.575Z,96.11
2017-01-26T06:21:10.304Z,95.59
2017-01-26T06:22:08.766Z,95.45
2017-01-26T06:23:09.722Z,95.45
2017-01-26T06:24:08.959Z,94.79
2017-01-26T06:25:09.515Z,95.12
2017-01-26T06:26:09.417Z,94.98
2017-01-26T06:27:09.260Z,94.7
2017-01-26T06:28:08.635Z,94.89
2017-01-26T06:29:09.538Z,95.07
2017-01-26T06:30:09.684Z,94.03
2017-01-26T06:31:08.720Z,94.56
2017-01-26T06:32:09.003Z,94.89
2017-01-26T06:33:09.261Z,94.7
2017-01-26T06:34:08.963Z,94.7
2017-01-26T06:35:09.025Z,94.6
2017-01-26T06:36:09.313Z,93.84
2017-01-26T06:37:10.142Z,94.32
2017-01-26T06:38:09.554Z,94.51
2017-01-26T06:39:10.018Z,94.41
2017-01-26T06:40:10.329Z,94.13
2017-01-26T06:41:10.557Z,94.6
2017-01-26T06:42:09.409Z,94.98
2017-01-26T06:43:09.239Z,94.79
2017-01-26T06:44:09.530Z,94.7
2017-01-26T06:45:09.164Z,94.51
2017-01-26T06:46:08.863Z,94.51
2017-01-26T06:47:10.068Z,94.7
2017-01-26T06:48:09.741Z,94.03
2017-01-26T06:49:08.923Z,94.22
2017-01-26T06:50:10.305Z,94.03
2017-01-26T06:51:09.700Z,93.75
2017-01-26T06:52:08.277Z,94.13
2017-01-26T06:53:09.258Z,94.41
2017-01-26T06:54:08.825Z,94.79
2017-01-26T06:55:09.396Z,94.79
2017-01-26T06:56:09.339Z,94.79
2017-01-26T06:57:09.332Z,94.98
2017-01-26T06:58:09.300Z,95.17
2017-01-26T06:59:09.904Z,95.36
2017-01-26T07:00:09.266Z,95.07
2017-01-26T07:01:10.318Z,95.36
2017-01-26T07:02:10.903Z,95.26
2017-01-26T07:03:09.403Z,95.26
2017-01-26T07:04:09.397Z,95.73
2017-01-26T07:05:08.772Z,95.45
2017-01-26T07:06:09.092Z,95.54
2017-01-26T07:07:08.887Z,95.17
2017-01-26T07:08:09.041Z,95.26
2017-01-26T07:09:08.805Z,95.54
2017-01-26T07:10:09.517Z,96.02
2017-01-26T07:11:09.137Z,96.02
2017-01-26T07:12:09.818Z,95.73
2017-01-26T07:13:08.856Z,94.79
2017-01-26T07:14:10.119Z,94.51
2017-01-26T07:15:09.335Z,94.6
2017-01-26T07:16:10.038Z,94.41
2017-01-26T07:17:09.956Z,94.51
2017-01-26T07:18:09.487Z,94.89
2017-01-26T07:19:10.124Z,94.98
2017-01-26T07:20:09.146Z,94.41
2017-01-26T07:21:09.231Z,94.6
2017-01-26T07:22:10.068Z,94.41
2017-01-26T07:23:09.928Z,94.79
2017-01-26T07:24:10.083Z,94.98
2017-01-26T07:25:10.056Z,95.36
2017-01-26T07:26:10.560Z,95.73
2017-01-26T07:27:09.174Z,96.21
2017-01-26T07:28:09.598Z,95.45
2017-01-26T07:29:09.445Z,95.92
2017-01-26T07:30:10.013Z,96.3
2017-01-26T07:31:09.940Z,96.02
2017-01-26T07:32:09.095Z,96.11
2017-01-26T07:33:10.372Z,96.11
2017-01-26T07:34:09.957Z,96.11
2017-01-26T07:35:10.105Z,96.11
2017-01-26T07:36:09.082Z,96.11
2017-01-26T07:37:09.316Z,95.36
2017-01-26T07:38:09.780Z,96.11
2017-01-26T07:39:09.744Z,95.83
2017-01-26T07:40:10.260Z,96.21
2017-01-26T07:41:09.515Z,96.4
2017-01-26T07:42:10.520Z,96.59
2017-01-26T07:43:09.689Z,96.91
2017-01-26T07:44:09.458Z,97.06
2017-01-26T07:45:10.399Z,96.87
2017-01-26T07:46:10.197Z,97.2
2017-01-26T07:47:09.409Z,96.96
2017-01-26T07:48:09.308Z,96.96
2017-01-26T07:49:09.961Z,97.06
2017-01-26T07:50:09.485Z,96.21
2017-01-26T07:51:10.101Z,96.3
2017-01-26T07:52:09.794Z,95.92
2017-01-26T07:53:10.395Z,95.92
2017-01-26T07:54:09.903Z,95.54
2017-01-26T07:55:10.870Z,94.98
2017-01-26T07:56:09.360Z,94.7
2017-01-26T07:57:09.699Z,94.51
2017-01-26T07:58:09.547Z,94.03
2017-01-26T07:59:10.317Z,94.22
2017-01-26T08:00:10.459Z,93.84
2017-01-26T08:01:10.194Z,94.13
2017-01-26T08:02:09.863Z,93.56
2017-01-26T08:03:09.797Z,93.18
2017-01-26T08:04:10.356Z,92.52
2017-01-26T08:05:09.971Z,92.52
2017-01-26T08:06:09.704Z,93.09
2017-01-26T08:07:09.837Z,92.99
2017-01-26T08:08:10.071Z,92.8
2017-01-26T08:09:09.788Z,92.71
2017-01-26T08:10:10.150Z,92.61
2017-01-26T08:11:10.164Z,92.61
2017-01-26T08:12:09.776Z,92.8
2017-01-26T08:13:09.771Z,92.24
2017-01-26T08:14:10.521Z,92.33
2017-01-26T08:15:09.681Z,92.24
2017-01-26T08:16:11.055Z,92.24
2017-01-26T08:17:09.693Z,92.14
2017-01-26T08:18:10.073Z,91.77
2017-01-26T08:19:10.382Z,91.67
2017-01-26T08:20:09.876Z,91.29
2017-01-26T08:21:10.021Z,91.58
2017-01-26T08:22:10.014Z,91.01
2017-01-26T08:23:10.061Z,90.73
2017-01-26T08:24:09.930Z,90.86
2017-01-26T08:25:10.494Z,90.54
2017-01-26T08:26:09.608Z,90.77
2017-01-26T08:27:09.893Z,90.96
2017-01-26T08:28:10.122Z,89.92
2017-01-26T08:29:10.021Z,89.83
2017-01-26T08:30:10.326Z,90.01
2017-01-26T08:31:09.945Z,90.2
2017-01-26T08:32:09.951Z,90.3
2017-01-26T08:33:10.289Z,89.83
2017-01-26T08:34:10.711Z,89.92
2017-01-26T08:35:11.000Z,89.92
2017-01-26T08:36:10.318Z,90.39
2017-01-26T08:37:10.785Z,90.2
2017-01-26T08:38:10.388Z,89.73
2017-01-26T08:39:10.460Z,89.17
2017-01-26T08:40:10.433Z,88.88
2017-01-26T08:41:10.150Z,88.88
2017-01-26T08:42:10.876Z,88.88
2017-01-26T08:43:10.498Z,88.12
2017-01-26T08:44:10.336Z,88.12
2017-01-26T08:45:10.467Z,87.93
2017-01-26T08:46:09.868Z,88.03
2017-01-26T08:47:10.258Z,87.84
2017-01-26T08:48:10.127Z,87.37
2017-01-26T08:49:10.444Z,87.08
2017-01-26T08:50:10.296Z,86.52
2017-01-26T08:51:10.170Z,85.66
2017-01-26T08:52:10.675Z,85.61
2017-01-26T08:53:10.457Z,85.14
2017-01-26T08:54:11.209Z,84.86
2017-01-26T08:55:10.742Z,85.24
2017-01-26T08:56:10.731Z,85.24
2017-01-26T08:57:10.689Z,85.33
2017-01-26T08:58:10.271Z,84.67
2017-01-26T08:59:11.084Z,84.67
2017-01-26T09:00:11.007Z,84.2
2017-01-26T09:01:10.348Z,83.53
2017-01-26T09:02:10.884Z,83.53
2017-01-26T09:03:10.650Z,83.06
2017-01-26T09:04:11.679Z,83.06
2017-01-26T09:05:10.565Z,83.53
2017-01-26T09:06:10.323Z,83.44
2017-01-26T09:07:10.586Z,84.01
2017-01-26T09:08:10.479Z,83.82
2017-01-26T09:09:10.954Z,83.44
2017-01-26T09:10:10.838Z,82.31
2017-01-26T09:11:11.003Z,82.78
2017-01-26T09:12:10.683Z,82.59
2017-01-26T09:13:11.092Z,82.5
2017-01-26T09:14:11.247Z,82.4
2017-01-26T09:15:10.590Z,82.4
2017-01-26T09:16:10.311Z,82.78
2017-01-26T09:17:10.872Z,82.68
2017-01-26T09:18:10.585Z,82.87
2017-01-26T09:19:11.028Z,82.21
2017-01-26T09:20:11.002Z,81.55
2017-01-26T09:21:10.594Z,81.83
2017-01-26T09:22:11.167Z,81.45
2017-01-26T09:23:11.073Z,81.36
2017-01-26T09:24:10.786Z,82.12
2017-01-26T09:25:10.538Z,82.21
2017-01-26T09:26:11.185Z,82.31
2017-01-26T09:27:10.642Z,81.93
2017-01-26T09:28:10.787Z,82.21
2017-01-26T09:29:10.740Z,82.78
2017-01-26T09:30:11.454Z,83.06
2017-01-26T09:31:11.362Z,82.78
2017-01-26T09:32:11.027Z,81.93
2017-01-26T09:33:11.099Z,81.64
2017-01-26T09:34:11.329Z,81.36
2017-01-26T09:35:10.776Z,81.02
2017-01-26T09:36:11.863Z,82.21
2017-01-26T09:37:10.926Z,81.83
2017-01-26T09:38:10.854Z,81.55
2017-01-26T09:39:11.321Z,81.83
2017-01-26T09:40:11.188Z,81.93
2017-01-26T09:41:11.559Z,81.83
2017-01-26T09:42:10.919Z,81.07
2017-01-26T09:43:10.935Z,80.69
2017-01-26T09:44:12.297Z,80.98
2017-01-26T09:45:12.090Z,82.02
2017-01-26T09:46:10.887Z,82.21
2017-01-26T09:47:11.661Z,81.93
2017-01-26T09:48:11.529Z,81.17
2017-01-26T09:49:11.161Z,80.55
2017-01-26T09:50:11.322Z,81.55
2017-01-26T09:51:11.021Z,81.12
2017-01-26T09:52:11.181Z,80.93
2017-01-26T09:53:11.632Z,80.98
2017-01-26T09:54:11.375Z,81.74
2017-01-26T09:55:11.460Z,81.64
2017-01-26T09:56:11.193Z,80.88
2017-01-26T09:57:12.407Z,81.07
2017-01-26T09:58:11.182Z,81.55
2017-01-26T09:59:11.792Z,81.55
2017-01-26T10:00:11.197Z,81.17
2017-01-26T10:01:11.199Z,80.6
2017-01-26T10:02:11.423Z,79.94
2017-01-26T10:03:11.164Z,78.99
2017-01-26T10:04:10.998Z,79.98
2017-01-26T10:05:11.567Z,79.47
2017-01-26T10:06:11.481Z,79.41
2017-01-26T10:07:11.123Z,78.08
2017-01-26T10:08:12.040Z,77.33
2017-01-26T10:09:11.305Z,77.51
2017-01-26T10:10:11.443Z,77.14
2017-01-26T10:11:11.331Z,77.04
2017-01-26T10:12:11.491Z,77.33
2017-01-26T10:13:11.489Z,77.61
2017-01-26T10:14:11.551Z,78.99
2017-01-26T10:15:11.584Z,79.28
2017-01-26T10:16:11.472Z,78.85
2017-01-26T10:17:11.688Z,77.99
2017-01-26T10:18:11.564Z,77.33
2017-01-26T10:19:11.958Z,77.04
2017-01-26T10:20:12.954Z,76.76
2017-01-26T10:21:11.740Z,76.67
2017-01-26T10:22:11.506Z,76.67
2017-01-26T10:23:11.349Z,76.86
2017-01-26T10:24:11.498Z,76.19
2017-01-26T10:25:11.769Z,76
2017-01-26T10:26:12.072Z,75.66
2017-01-26T10:27:12.905Z,75.95
2017-01-26T10:28:11.616Z,77.51
2017-01-26T10:29:11.319Z,77.14
2017-01-26T10:30:11.871Z,77.61
2017-01-26T10:31:11.685Z,78.08
2017-01-26T10:32:11.913Z,78.94
2017-01-26T10:33:11.351Z,78.37
2017-01-26T10:34:12.256Z,76.86
2017-01-26T10:35:11.957Z,76.51
2017-01-26T10:36:11.796Z,76.86
2017-01-26T10:37:12.895Z,77.33
2017-01-26T10:38:12.060Z,77.42
2017-01-26T10:39:11.627Z,76.95
2017-01-26T10:40:11.664Z,78.23
2017-01-26T10:41:11.766Z,78.46
2017-01-26T10:42:11.664Z,79.03
2017-01-26T10:43:12.336Z,79.5
2017-01-26T10:44:11.904Z,79.37
2017-01-26T10:45:12.484Z,79.5
2017-01-26T10:46:12.093Z,79.13
2017-01-26T10:47:12.091Z,78.27
2017-01-26T10:48:11.795Z,77.89
2017-01-26T10:49:11.974Z,77.04
2017-01-26T10:50:12.047Z,77.33
2017-01-26T10:51:12.166Z,77.8
2017-01-26T10:52:12.657Z,77.61
2017-01-26T10:53:12.073Z,77.8
2017-01-26T10:54:12.348Z,77.61
2017-01-26T10:55:12.197Z,77.61
2017-01-26T10:56:12.984Z,77.99
2017-01-26T10:57:12.604Z,77.51
2017-01-26T10:58:12.928Z,77.61
2017-01-26T10:59:11.978Z,77.89
2017-01-26T11:00:12.219Z,77.8
2017-01-26T11:01:12.535Z,77.7
2017-01-26T11:02:12.725Z,77.7
2017-01-26T11:03:12.445Z,77.51
2017-01-26T11:04:12.813Z,77.23
2017-01-26T11:05:11.952Z,76.23
2017-01-26T11:06:13.637Z,76.61
2017-01-26T11:07:13.039Z,77.04
2017-01-26T11:08:12.188Z,76.95
2017-01-26T11:09:12.540Z,76.57
2017-01-26T11:10:12.610Z,76.86
2017-01-26T11:11:15.390Z,76.48
2017-01-26T11:12:12.200Z,77.23
2017-01-26T11:13:12.759Z,76.86
2017-01-26T11:14:13.161Z,76.86
2017-01-26T11:15:13.222Z,76.67
2017-01-26T11:16:12.884Z,76.86
2017-01-26T11:17:13.698Z,76.04
2017-01-26T11:18:12.608Z,76.38
2017-01-26T11:19:13.613Z,76.76
2017-01-26T11:20:12.913Z,76.86
2017-01-26T11:21:12.990Z,77.04
2017-01-26T11:22:13.010Z,76.95
2017-01-26T11:23:13.264Z,76.57
2017-01-26T11:24:13.183Z,76.76
2017-01-26T11:25:13.280Z,76.48
2017-01-26T11:26:12.768Z,76.38
2017-01-26T11:27:13.199Z,75.62
2017-01-26T11:28:12.771Z,75.62
2017-01-26T11:29:13.083Z,76.19
2017-01-26T11:30:13.384Z,76.76
2017-01-26T11:31:12.666Z,76.86
2017-01-26T11:32:12.779Z,76.67
2017-01-26T11:33:12.636Z,76.86
2017-01-26T11:34:13.226Z,76.67
2017-01-26T11:35:13.027Z,76.48
2017-01-26T11:36:13.111Z,76.14
2017-01-26T11:37:13.751Z,75.66
2017-01-26T11:38:48.720Z,76.04
2017-01-26T11:39:29.383Z,75.95
2017-01-26T11:40:29.011Z,75.38
2017-01-26T11:41:29.663Z,74.81
2017-01-26T11:42:28.971Z,74.52
2017-01-26T11:43:29.227Z,75.09
2017-01-26T11:44:29.225Z,75.09
2017-01-26T11:45:29.513Z,75.43
2017-01-26T11:46:30.359Z,75.72
2017-01-26T11:47:29.802Z,76.29
2017-01-26T11:48:29.708Z,76.23
2017-01-26T11:49:29.079Z,75.38
2017-01-26T11:50:29.758Z,74.9
2017-01-26T11:51:29.603Z,74.43
2017-01-26T11:52:30.130Z,74.33
2017-01-26T11:53:29.739Z,74.62
2017-01-26T11:54:29.525Z,74.71
2017-01-26T11:55:30.519Z,75.09
2017-01-26T11:56:29.648Z,75.09
2017-01-26T11:57:30.256Z,74.62
2017-01-26T11:58:30.390Z,75.57
2017-01-26T11:59:29.931Z,75.09
2017-01-26T12:00:30.163Z,75
2017-01-26T12:01:29.769Z,74.33
2017-01-26T12:02:30.281Z,74.43
2017-01-26T12:03:30.337Z,74.05
2017-01-26T12:04:29.548Z,74.43
2017-01-26T12:05:30.480Z,75
2017-01-26T12:06:29.299Z,75
2017-01-26T12:07:30.978Z,75.28
2017-01-26T12:08:31.060Z,74.71
2017-01-26T12:09:30.590Z,74.62
2017-01-26T12:10:30.424Z,75.28
2017-01-26T12:11:29.785Z,74.15
2017-01-26T12:12:30.747Z,74.43
2017-01-26T12:13:29.812Z,74.15
2017-01-26T12:14:29.818Z,73.58
2017-01-26T12:15:29.841Z,74.05
2017-01-26T12:16:30.149Z,74.62
2017-01-26T12:17:30.305Z,74.43
2017-01-26T12:18:31.179Z,75.24
2017-01-26T12:19:29.954Z,74.52
2017-01-26T12:20:30.654Z,74.05
2017-01-26T12:21:30.057Z,73.86
2017-01-26T12:22:29.711Z,74.4
2017-01-26T12:23:30.606Z,74.43
2017-01-26T12:24:30.125Z,73.96
2017-01-26T12:25:30.491Z,73.68
2017-01-26T12:26:30.223Z,73.77
2017-01-26T12:27:30.359Z,73.39
2017-01-26T12:28:30.352Z,72.73
2017-01-26T12:29:30.189Z,72.82
2017-01-26T12:30:30.235Z,73.01
2017-01-26T12:31:30.004Z,72.06
2017-01-26T12:32:30.024Z,72.53
2017-01-26T12:33:30.588Z,73.3
2017-01-26T12:34:30.790Z,72.73
2017-01-26T12:35:30.218Z,73.11
2017-01-26T12:36:30.288Z,72.53
2017-01-26T12:37:30.967Z,71.88
2017-01-26T12:38:30.553Z,71.34
2017-01-26T12:39:30.561Z,71.15
2017-01-26T12:40:31.123Z,72
2017-01-26T12:41:30.730Z,72.16
2017-01-26T12:42:30.570Z,72.44
2017-01-26T12:43:30.413Z,72.73
2017-01-26T12:44:31.261Z,72.29
2017-01-26T12:45:30.026Z,72.34
2017-01-26T12:46:30.837Z,72.53
2017-01-26T12:47:30.261Z,72.34
2017-01-26T12:48:30.432Z,71.97
2017-01-26T12:49:31.163Z,71.44
2017-01-26T12:50:30.218Z,71.78
2017-01-26T12:51:30.836Z,72.16
2017-01-26T12:52:30.503Z,73.11
2017-01-26T12:53:31.139Z,72.73
2017-01-26T12:54:30.389Z,71.78